createdAt,value
2023-05-04T04:00:35.845Z,75.63
2023-05-04T04:01:36.814Z,75.63
2023-05-04T04:02:36.923Z,75.63
2023-05-04T04:03:36.861Z,75.63
2023-05-04T04:04:36.899Z,75.53
2023-05-04T04:05:36.792Z,75.43
2023-05-04T04:06:36.768Z,75.43
2023-05-04T04:07:36.769Z,75.43
2023-05-04T04:08:36.743Z,75.43
2023-05-04T04:09:36.742Z,75.32
2023-05-04T04:10:36.726Z,75.43
2023-05-04T04:11:36.708Z,75.32
2023-05-04T04:12:36.760Z,75.32
2023-05-04T04:13:36.703Z,75.32
2023-05-04T04:14:36.703Z,75.32
2023-05-04T04:15:36.667Z,75.43
2023-05-04T04:16:36.777Z,75.43
2023-05-04T04:17:36.712Z,75.22
2023-05-04T04:18:36.650Z,75.22
2023-05-04T04:19:36.636Z,75.22
2023-05-04T04:20:36.609Z,75.22
2023-05-04T04:21:36.624Z,75.22
2023-05-04T04:22:36.583Z,75.32
2023-05-04T04:23:36.609Z,75.32
2023-05-04T04:24:36.590Z,75.32
2023-05-04T04:25:36.582Z,75.43
2023-05-04T04:26:36.556Z,75.43
2023-05-04T04:27:36.550Z,75.43
2023-05-04T04:28:36.552Z,75.43
2023-05-04T04:29:36.547Z,75.43
2023-05-04T04:30:36.507Z,75.43
2023-05-04T04:31:36.520Z,75.53
2023-05-04T04:32:36.544Z,75.53
2023-05-04T04:33:36.480Z,75.63
2023-05-04T04:34:36.589Z,75.63
2023-05-04T04:35:36.460Z,75.73
2023-05-04T04:36:36.453Z,75.63
2023-05-04T04:37:36.456Z,75.63
2023-05-04T04:38:36.439Z,75.63
2023-05-04T04:39:36.470Z,75.73
2023-05-04T04:40:36.429Z,75.53
2023-05-04T04:41:36.387Z,75.63
2023-05-04T04:42:36.379Z,75.63
2023-05-04T04:43:36.418Z,75.53
2023-05-04T04:44:36.356Z,75.53
2023-05-04T04:45:36.370Z,75.39
2023-05-04T04:46:36.377Z,75.39
2023-05-04T04:47:36.375Z,75.29
2023-05-04T04:48:36.323Z,75.18
2023-05-04T04:49:36.324Z,75.08
2023-05-04T04:50:36.292Z,75.18
2023-05-04T04:51:36.292Z,74.67
2023-05-04T04:52:36.276Z,74.46
2023-05-04T04:53:36.306Z,74.46
2023-05-04T04:54:36.237Z,74.26
2023-05-04T04:55:36.246Z,74.36
2023-05-04T04:56:36.263Z,74.46
2023-05-04T04:57:36.243Z,74.46
2023-05-04T04:58:36.224Z,74.46
2023-05-04T04:59:36.194Z,74.36
2023-05-04T05:00:36.179Z,74.33
2023-05-04T05:01:36.202Z,74.12
2023-05-04T05:02:36.814Z,74.02
2023-05-04T05:03:36.173Z,73.91
2023-05-04T05:04:36.172Z,73.91
2023-05-04T05:05:36.135Z,73.81
2023-05-04T05:06:36.137Z,73.61
2023-05-04T05:07:36.117Z,73.81
2023-05-04T05:08:36.105Z,73.91
2023-05-04T05:09:36.252Z,73.91
2023-05-04T05:10:36.075Z,73.71
2023-05-04T05:11:36.087Z,73.71
2023-05-04T05:12:36.071Z,73.71
2023-05-04T05:13:36.052Z,73.71
2023-05-04T05:14:36.055Z,73.40
2023-05-04T05:15:36.065Z,73.40
2023-05-04T05:16:36.056Z,73.40
2023-05-04T05:17:36.025Z,73.36
2023-05-04T05:18:36.003Z,73.26
2023-05-04T05:19:35.990Z,73.06
2023-05-04T05:20:35.961Z,73.26
2023-05-04T05:21:35.972Z,73.26
2023-05-04T05:22:35.950Z,73.36
2023-05-04T05:23:35.970Z,73.36
2023-05-04T05:24:35.928Z,73.26
2023-05-04T05:25:35.915Z,72.75
2023-05-04T05:26:35.910Z,72.64
2023-05-04T05:27:35.902Z,72.54
2023-05-04T05:28:35.907Z,72.54
2023-05-04T05:29:35.898Z,72.54
2023-05-04T05:30:35.897Z,72.44
2023-05-04T05:31:35.853Z,72.44
2023-05-04T05:32:35.976Z,72.54
2023-05-04T05:33:35.832Z,72.41
2023-05-04T05:34:35.823Z,72.30
2023-05-04T05:35:35.819Z,72.20
2023-05-04T05:36:35.808Z,72.09
2023-05-04T05:37:35.790Z,71.75
2023-05-04T05:38:35.786Z,71.45
2023-05-04T05:39:35.798Z,71.34
2023-05-04T05:40:35.761Z,70.94
2023-05-04T05:41:35.762Z,70.70
2023-05-04T05:42:35.742Z,70.70
2023-05-04T05:43:35.718Z,70.59
2023-05-04T05:44:35.711Z,70.39
2023-05-04T05:45:35.753Z,70.04
2023-05-04T05:46:35.736Z,69.84
2023-05-04T05:47:35.736Z,69.64
2023-05-04T05:48:35.680Z,69.84
2023-05-04T05:49:35.680Z,69.84
2023-05-04T05:50:35.668Z,69.84
2023-05-04T05:51:35.674Z,69.64
2023-05-04T05:52:35.632Z,69.43
2023-05-04T05:53:35.656Z,69.32
2023-05-04T05:54:35.615Z,69.32
2023-05-04T05:55:35.611Z,69.29
2023-05-04T05:56:35.591Z,69.19
2023-05-04T05:57:35.607Z,68.99
2023-05-04T05:58:35.583Z,69.09
2023-05-04T05:59:35.566Z,69.09
2023-05-04T06:00:35.589Z,68.96
2023-05-04T06:01:35.532Z,68.44
2023-05-04T06:02:35.586Z,67.83
2023-05-04T06:03:35.642Z,68.03
2023-05-04T06:04:35.608Z,67.52
2023-05-04T06:05:35.506Z,67.49
2023-05-04T06:06:35.481Z,67.38
2023-05-04T06:07:35.468Z,67.28
2023-05-04T06:08:35.495Z,67.08
2023-05-04T06:09:35.438Z,67.08
2023-05-04T06:10:35.460Z,66.97
2023-05-04T06:11:35.441Z,67.05
2023-05-04T06:12:35.486Z,66.84
2023-05-04T06:13:35.397Z,66.63
2023-05-04T06:14:35.397Z,66.43
2023-05-04T06:15:35.394Z,66.33
2023-05-04T06:16:35.410Z,65.89
2023-05-04T06:17:35.417Z,65.99
2023-05-04T06:18:35.355Z,65.68
2023-05-04T06:19:35.328Z,65.68
2023-05-04T06:20:35.329Z,65.78
2023-05-04T06:21:35.333Z,65.68
2023-05-04T06:22:35.316Z,65.55
2023-05-04T06:23:35.302Z,65.14
2023-05-04T06:24:35.309Z,64.94
2023-05-04T06:25:35.553Z,64.83
2023-05-04T06:26:35.285Z,64.83
2023-05-04T06:27:35.270Z,65.11
2023-05-04T06:28:35.270Z,64.57
2023-05-04T06:29:35.229Z,63.54
2023-05-04T06:30:35.216Z,63.07
2023-05-04T06:31:35.224Z,62.54
2023-05-04T06:32:35.250Z,61.49
2023-05-04T06:33:35.474Z,60.82
2023-05-04T06:34:35.192Z,59.87
2023-05-04T06:35:35.147Z,57.80
2023-05-04T06:36:35.169Z,57.80
2023-05-04T06:37:35.153Z,56.55
2023-05-04T06:38:37.775Z,55.91
2023-05-04T06:39:35.122Z,55.51
2023-05-04T06:40:35.127Z,55.25
2023-05-04T06:41:35.089Z,53.93
2023-05-04T06:42:35.093Z,53.59
2023-05-04T06:43:35.074Z,53.19
2023-05-04T06:44:35.084Z,52.76
2023-05-04T06:45:35.067Z,52.33
2023-05-04T06:46:35.040Z,51.51
2023-05-04T06:47:35.077Z,52.35
2023-05-04T06:48:35.036Z,52.35
2023-05-04T06:49:35.012Z,53.37
2023-05-04T06:50:34.998Z,52.76
2023-05-04T06:51:34.986Z,52.84
2023-05-04T06:52:35.021Z,51.18
2023-05-04T06:53:34.963Z,50.78
2023-05-04T06:54:34.969Z,51.49
2023-05-04T06:55:34.946Z,50.76
2023-05-04T06:56:34.940Z,50.12
2023-05-04T06:57:34.932Z,49.19
2023-05-04T06:58:34.908Z,48.78
2023-05-04T06:59:34.908Z,48.66
2023-05-04T07:00:34.905Z,47.95
2023-05-04T07:01:34.905Z,47.42
2023-05-04T07:02:34.970Z,47.85
2023-05-04T07:03:34.923Z,48.66
2023-05-04T07:04:34.837Z,49.06
2023-05-04T07:05:34.836Z,48.86
2023-05-04T07:06:34.863Z,48.43
2023-05-04T07:07:34.816Z,47.19
2023-05-04T07:08:34.855Z,46.46
2023-05-04T07:09:34.801Z,45.51
2023-05-04T07:10:34.778Z,44.92
2023-05-04T07:11:34.769Z,45.00
2023-05-04T07:12:34.794Z,44.48
2023-05-04T07:13:34.751Z,44.88
2023-05-04T07:14:34.770Z,43.75
2023-05-04T07:15:34.753Z,42.82
2023-05-04T07:16:34.716Z,43.10
2023-05-04T07:17:34.726Z,42.70
2023-05-04T07:18:34.705Z,42.88
2023-05-04T07:19:34.734Z,42.86
2023-05-04T07:20:34.681Z,42.47
2023-05-04T07:21:34.660Z,43.32
2023-05-04T07:22:34.669Z,44.58
2023-05-04T07:23:34.671Z,45.41
2023-05-04T07:24:34.632Z,45.10
2023-05-04T07:25:35.189Z,44.74
2023-05-04T07:26:34.612Z,46.43
2023-05-04T07:27:34.675Z,46.94
2023-05-04T07:28:34.593Z,46.94
2023-05-04T07:29:34.573Z,46.43
2023-05-04T07:30:34.604Z,46.30
2023-05-04T07:31:34.627Z,46.22
2023-05-04T07:32:34.579Z,45.79
2023-05-04T07:33:34.555Z,47.22
2023-05-04T07:34:45.034Z,46.10
2023-05-04T07:35:34.535Z,45.67
2023-05-04T07:36:34.678Z,44.74
2023-05-04T07:37:34.483Z,44.82
2023-05-04T07:38:34.487Z,45.31
2023-05-04T07:39:34.458Z,44.37
2023-05-04T07:40:34.446Z,43.77
2023-05-04T07:41:34.450Z,44.42
2023-05-04T07:42:34.459Z,45.55
2023-05-04T07:43:34.428Z,45.67
2023-05-04T07:44:35.309Z,45.67
2023-05-04T07:45:34.396Z,46.36
2023-05-04T07:46:34.594Z,44.49
2023-05-04T07:47:34.420Z,43.87
2023-05-04T07:48:34.368Z,44.17
2023-05-04T07:49:34.350Z,44.58
2023-05-04T07:50:34.405Z,43.04
2023-05-04T07:51:34.338Z,43.37
2023-05-04T07:52:34.345Z,44.25
2023-05-04T07:53:34.329Z,42.94
2023-05-04T07:54:34.300Z,43.24
2023-05-04T07:55:34.321Z,42.66
2023-05-04T07:56:34.273Z,44.09
2023-05-04T07:57:34.262Z,44.60
2023-05-04T07:58:34.334Z,43.97
2023-05-04T07:59:34.252Z,41.73
2023-05-04T08:00:34.237Z,41.81
2023-05-04T08:01:34.304Z,40.48
2023-05-04T08:02:34.335Z,40.03
2023-05-04T08:03:34.220Z,41.25
2023-05-04T08:04:34.190Z,39.41
2023-05-04T08:05:34.186Z,39.37
2023-05-04T08:06:34.190Z,38.85
2023-05-04T08:07:34.165Z,38.03
2023-05-04T08:08:34.286Z,37.81
2023-05-04T08:09:34.149Z,37.49
2023-05-04T08:10:34.145Z,36.67
2023-05-04T08:11:34.118Z,37.96
2023-05-04T08:12:34.129Z,40.98
2023-05-04T08:13:34.085Z,42.54
2023-05-04T08:14:35.304Z,43.57
2023-05-04T08:15:34.072Z,41.87
2023-05-04T08:16:34.058Z,42.96
2023-05-04T08:17:34.081Z,42.46
2023-05-04T08:18:34.062Z,40.61
2023-05-04T08:19:34.050Z,40.09
2023-05-04T08:20:34.026Z,39.87
2023-05-04T08:21:34.016Z,39.91
2023-05-04T08:22:34.014Z,40.73
2023-05-04T08:23:33.986Z,41.14
2023-05-04T08:24:33.996Z,41.42
2023-05-04T08:25:33.989Z,40.09
2023-05-04T08:26:33.951Z,39.89
2023-05-04T08:27:33.952Z,39.48
2023-05-04T08:28:33.940Z,39.37
2023-05-04T08:29:33.961Z,39.04
2023-05-04T08:30:33.937Z,38.62
2023-05-04T08:31:33.908Z,38.30
2023-05-04T08:32:33.958Z,37.21
2023-05-04T08:33:33.895Z,37.71
2023-05-04T08:34:33.863Z,38.59
2023-05-04T08:35:33.903Z,39.12
2023-05-04T08:36:33.858Z,39.52
2023-05-04T08:37:33.834Z,40.35
2023-05-04T08:38:33.821Z,40.75
2023-05-04T08:39:33.827Z,40.86
2023-05-04T08:40:33.834Z,40.73
2023-05-04T08:41:33.825Z,40.13
2023-05-04T08:42:33.818Z,39.12
2023-05-04T08:43:33.766Z,38.11
2023-05-04T08:44:33.774Z,37.90
2023-05-04T08:45:33.831Z,37.99
2023-05-04T08:46:33.810Z,37.48
2023-05-04T08:47:33.770Z,37.37
2023-05-04T08:48:33.746Z,36.86
2023-05-04T08:49:33.720Z,35.43
2023-05-04T08:50:33.697Z,35.21
2023-05-04T08:51:33.704Z,34.99
2023-05-04T08:52:33.688Z,34.99
2023-05-04T08:53:33.662Z,34.89
2023-05-04T08:54:33.691Z,34.88
2023-05-04T08:55:33.654Z,35.30
2023-05-04T08:56:33.762Z,35.90
2023-05-04T08:57:33.625Z,35.80
2023-05-04T08:58:33.609Z,35.60
2023-05-04T08:59:33.617Z,36.61
2023-05-04T09:00:33.703Z,35.88
2023-05-04T09:01:33.642Z,35.10
2023-05-04T09:02:33.571Z,35.41
2023-05-04T09:03:33.632Z,36.77
2023-05-04T09:04:33.548Z,37.40
2023-05-04T09:05:33.547Z,37.60
2023-05-04T09:06:33.546Z,37.40
2023-05-04T09:07:33.504Z,37.08
2023-05-04T09:08:33.526Z,36.68
2023-05-04T09:09:33.494Z,36.77
2023-05-04T09:10:33.492Z,37.18
2023-05-04T09:11:33.502Z,37.16
2023-05-04T09:12:33.569Z,37.55
2023-05-04T09:13:33.441Z,36.13
2023-05-04T09:14:33.492Z,35.82
2023-05-04T09:15:33.429Z,36.54
2023-05-04T09:16:33.484Z,37.23
2023-05-04T09:17:34.246Z,36.61
2023-05-04T09:18:33.557Z,35.88
2023-05-04T09:19:33.406Z,36.17
2023-05-04T09:20:33.381Z,34.64
2023-05-04T09:21:33.366Z,34.00
2023-05-04T09:22:33.363Z,33.91
2023-05-04T09:23:33.447Z,33.89
2023-05-04T09:24:33.357Z,33.07
2023-05-04T09:25:33.333Z,32.55
2023-05-04T09:26:33.331Z,31.86
2023-05-04T09:27:33.379Z,32.26
2023-05-04T09:28:33.333Z,32.17
2023-05-04T09:29:33.254Z,32.26
2023-05-04T09:30:33.259Z,33.42
2023-05-04T09:31:33.376Z,33.97
2023-05-04T09:32:33.296Z,34.69
2023-05-04T09:33:33.264Z,36.15
2023-05-04T09:34:33.223Z,36.79
2023-05-04T09:35:34.360Z,36.49
2023-05-04T09:36:33.201Z,37.08
2023-05-04T09:37:33.210Z,37.06
2023-05-04T09:38:33.210Z,36.86
2023-05-04T09:39:33.222Z,35.92
2023-05-04T09:40:33.156Z,35.72
2023-05-04T09:41:33.160Z,35.61
2023-05-04T09:42:33.132Z,35.99
2023-05-04T09:43:33.120Z,34.77
2023-05-04T09:44:33.113Z,34.86
2023-05-04T09:45:33.117Z,34.54
2023-05-04T09:46:34.566Z,34.16
2023-05-04T09:47:33.129Z,34.04
2023-05-04T09:48:33.082Z,34.04
2023-05-04T09:49:33.060Z,34.24
2023-05-04T09:50:33.048Z,33.82
2023-05-04T09:51:33.043Z,33.40
2023-05-04T09:52:33.070Z,32.78
2023-05-04T09:53:33.130Z,32.36
2023-05-04T09:54:33.008Z,32.38
2023-05-04T09:55:33.017Z,32.90
2023-05-04T09:56:32.982Z,33.30
2023-05-04T09:57:32.995Z,33.08
2023-05-04T09:58:32.975Z,33.31
2023-05-04T09:59:32.943Z,34.37
2023-05-04T10:00:32.959Z,34.88
2023-05-04T10:01:32.983Z,34.88
2023-05-04T10:02:32.994Z,35.35
2023-05-04T10:03:32.915Z,34.45
2023-05-04T10:04:32.897Z,34.86
2023-05-04T10:05:32.907Z,35.16
2023-05-04T10:06:32.867Z,35.25
2023-05-04T10:07:32.894Z,35.06
2023-05-04T10:08:32.872Z,34.83
2023-05-04T10:09:32.909Z,33.70
2023-05-04T10:10:32.825Z,34.20
2023-05-04T10:11:32.812Z,33.89
2023-05-04T10:12:32.840Z,34.09
2023-05-04T10:13:32.807Z,34.31
2023-05-04T10:14:32.792Z,34.76
2023-05-04T10:15:32.776Z,35.78
2023-05-04T10:16:32.821Z,35.60
2023-05-04T10:17:32.826Z,36.02
2023-05-04T10:18:32.743Z,36.55
2023-05-04T10:19:32.725Z,36.76
2023-05-04T10:20:32.721Z,36.35
2023-05-04T10:21:32.718Z,36.64
2023-05-04T10:22:32.685Z,36.32
2023-05-04T10:23:32.721Z,35.93
2023-05-04T10:24:32.673Z,35.52
2023-05-04T10:25:32.672Z,35.17
2023-05-04T10:26:32.670Z,33.97
2023-05-04T10:27:32.637Z,34.27
2023-05-04T10:28:32.632Z,34.20
2023-05-04T10:29:32.629Z,34.92
2023-05-04T10:30:32.617Z,35.21
2023-05-04T10:31:32.652Z,35.19
2023-05-04T10:32:32.621Z,35.38
2023-05-04T10:33:32.564Z,34.54
2023-05-04T10:34:32.587Z,33.51
2023-05-04T10:35:32.556Z,33.40
2023-05-04T10:36:32.569Z,32.68
2023-05-04T10:37:32.625Z,32.18
2023-05-04T10:38:32.637Z,32.50
2023-05-04T10:39:32.540Z,32.58
2023-05-04T10:40:32.499Z,32.38
2023-05-04T10:41:32.487Z,32.17
2023-05-04T10:42:32.470Z,31.83
2023-05-04T10:43:32.478Z,30.02
2023-05-04T10:44:32.484Z,29.03
2023-05-04T10:45:32.471Z,28.53
2023-05-04T10:46:32.444Z,29.75
2023-05-04T10:47:32.562Z,29.83
2023-05-04T10:48:32.406Z,28.82
2023-05-04T10:49:32.405Z,29.33
2023-05-04T10:50:32.401Z,29.55
2023-05-04T10:51:42.326Z,30.28
2023-05-04T10:52:32.355Z,30.77
2023-05-04T10:53:32.357Z,30.76
2023-05-04T10:54:32.354Z,30.07
2023-05-04T10:55:32.336Z,30.27
2023-05-04T10:56:32.335Z,30.47
2023-05-04T10:57:32.326Z,29.77
2023-05-04T10:58:32.292Z,29.85
2023-05-04T10:59:32.304Z,30.15
2023-05-04T11:00:32.282Z,30.55
2023-05-04T11:01:32.398Z,30.24
2023-05-04T11:02:33.319Z,30.02
2023-05-04T11:03:32.308Z,29.93
2023-05-04T11:04:32.236Z,30.04
2023-05-04T11:05:32.353Z,31.04
2023-05-04T11:06:32.208Z,30.26
2023-05-04T11:07:32.200Z,30.05
2023-05-04T11:08:32.209Z,30.34
2023-05-04T11:09:32.221Z,30.26
2023-05-04T11:10:32.169Z,30.77
2023-05-04T11:11:32.160Z,32.11
2023-05-04T11:12:32.214Z,32.71
2023-05-04T11:13:32.141Z,33.42
2023-05-04T11:14:32.433Z,32.81
2023-05-04T11:15:32.127Z,32.79
2023-05-04T11:16:32.138Z,32.08
2023-05-04T11:17:32.150Z,31.86
2023-05-04T11:18:32.111Z,31.16
2023-05-04T11:19:32.097Z,31.69
2023-05-04T11:20:32.062Z,32.79
2023-05-04T11:21:32.089Z,31.89
2023-05-04T11:22:32.050Z,31.37
2023-05-04T11:23:32.028Z,30.74
2023-05-04T11:24:32.012Z,31.03
2023-05-04T11:25:32.049Z,30.21
2023-05-04T11:26:32.003Z,29.31
2023-05-04T11:27:32.004Z,29.21
2023-05-04T11:28:32.144Z,29.82
2023-05-04T11:29:31.995Z,30.43
2023-05-04T11:30:31.971Z,29.91
2023-05-04T11:31:32.006Z,29.50
2023-05-04T11:32:31.980Z,29.62
2023-05-04T11:33:31.922Z,30.12
2023-05-04T11:34:31.897Z,29.93
2023-05-04T11:35:31.945Z,30.54
2023-05-04T11:36:31.911Z,30.43
2023-05-04T11:37:31.899Z,30.50
2023-05-04T11:38:31.875Z,30.28
2023-05-04T11:39:31.864Z,29.65
2023-05-04T11:40:31.870Z,29.24
2023-05-04T11:41:31.841Z,29.75
2023-05-04T11:42:31.822Z,30.36
2023-05-04T11:43:31.829Z,31.30
2023-05-04T11:44:31.786Z,31.00
2023-05-04T11:45:31.810Z,31.12
2023-05-04T11:46:31.844Z,31.31
2023-05-04T11:47:31.845Z,31.24
2023-05-04T11:48:31.814Z,31.96
2023-05-04T11:49:31.766Z,31.95
2023-05-04T11:50:31.794Z,32.03
2023-05-04T11:51:31.736Z,31.01
2023-05-04T11:52:31.724Z,30.61
2023-05-04T11:53:31.715Z,31.07
2023-05-04T11:54:31.703Z,31.88
2023-05-04T11:55:31.709Z,31.74
2023-05-04T11:56:31.670Z,31.93
2023-05-04T11:57:31.696Z,31.71
2023-05-04T11:58:31.658Z,31.01
2023-05-04T11:59:31.660Z,30.61
2023-05-04T12:00:31.641Z,29.91
2023-05-04T12:01:31.629Z,30.84
2023-05-04T12:02:31.671Z,31.03
2023-05-04T12:03:48.011Z,30.30
2023-05-04T12:04:31.602Z,29.58
2023-05-04T12:05:31.619Z,30.18
2023-05-04T12:06:31.571Z,29.77
2023-05-04T12:07:31.558Z,29.03
2023-05-04T12:08:31.571Z,28.84
2023-05-04T12:09:31.546Z,29.62
2023-05-04T12:10:31.524Z,28.41
2023-05-04T12:11:31.514Z,27.89
2023-05-04T12:12:33.323Z,27.37
2023-05-04T12:13:31.525Z,26.77
2023-05-04T12:14:31.477Z,26.87
2023-05-04T12:15:31.484Z,27.91
2023-05-04T12:16:31.515Z,28.44
2023-05-04T12:17:31.460Z,29.25
2023-05-04T12:18:31.486Z,29.99
2023-05-04T12:19:31.468Z,30.73
2023-05-04T12:20:31.493Z,31.56
2023-05-04T12:21:31.409Z,31.74
2023-05-04T12:22:31.396Z,32.21
2023-05-04T12:23:31.400Z,30.58
2023-05-04T12:24:31.392Z,29.75
2023-05-04T12:25:31.414Z,29.65
2023-05-04T12:26:31.364Z,29.36
2023-05-04T12:27:31.353Z,29.66
2023-05-04T12:28:31.381Z,30.27
2023-05-04T12:29:31.317Z,29.43
2023-05-04T12:30:31.303Z,28.82
2023-05-04T12:31:31.323Z,29.15
2023-05-04T12:32:31.307Z,29.64
2023-05-04T12:33:31.274Z,28.42
2023-05-04T12:34:31.266Z,27.80
2023-05-04T12:35:31.258Z,27.47
2023-05-04T12:36:31.282Z,27.26
2023-05-04T12:37:31.230Z,27.23
2023-05-04T12:38:31.217Z,26.93
2023-05-04T12:39:31.228Z,26.52
2023-05-04T12:40:31.207Z,26.94
2023-05-04T12:41:31.202Z,27.86
2023-05-04T12:42:31.195Z,26.97
2023-05-04T12:43:31.186Z,27.68
2023-05-04T12:44:31.150Z,28.39
2023-05-04T12:45:31.148Z,28.48
2023-05-04T12:46:31.164Z,27.27
2023-05-04T12:47:31.166Z,27.04
2023-05-04T12:48:31.142Z,27.34
2023-05-04T12:49:31.453Z,27.64
2023-05-04T12:50:31.103Z,26.82
2023-05-04T12:51:31.085Z,26.31
2023-05-04T12:52:31.087Z,26.15
2023-05-04T12:53:31.088Z,26.87
2023-05-04T12:54:31.057Z,28.25
2023-05-04T12:55:31.042Z,29.78
2023-05-04T12:56:31.041Z,29.45
2023-05-04T12:57:31.047Z,28.21
2023-05-04T12:58:31.052Z,27.17
2023-05-04T12:59:31.007Z,26.64
2023-05-04T13:00:31.019Z,25.84
2023-05-04T13:01:31.081Z,25.63
2023-05-04T13:02:31.085Z,25.73
2023-05-04T13:03:31.046Z,25.85
2023-05-04T13:04:30.965Z,26.16
2023-05-04T13:05:30.942Z,26.88
2023-05-04T13:06:30.931Z,27.38
2023-05-04T13:07:30.964Z,27.38
2023-05-04T13:08:30.934Z,27.01
2023-05-04T13:09:30.909Z,27.41
2023-05-04T13:10:30.897Z,27.21
2023-05-04T13:11:30.893Z,28.05
2023-05-04T13:12:30.996Z,29.06
2023-05-04T13:13:30.854Z,29.18
2023-05-04T13:14:30.936Z,29.86
2023-05-04T13:15:30.883Z,29.05
2023-05-04T13:16:30.938Z,29.41
2023-05-04T13:17:30.840Z,27.08
2023-05-04T13:18:30.830Z,27.27
2023-05-04T13:19:30.813Z,26.53
2023-05-04T13:20:30.819Z,25.72
2023-05-04T13:21:30.827Z,25.10
2023-05-04T13:22:30.761Z,24.88
2023-05-04T13:23:30.764Z,24.69
2023-05-04T13:24:30.764Z,25.51
2023-05-04T13:25:30.748Z,25.73
2023-05-04T13:26:30.789Z,26.56
2023-05-04T13:27:30.745Z,26.73
2023-05-04T13:28:30.694Z,26.02
2023-05-04T13:29:30.700Z,25.92
2023-05-04T13:30:30.690Z,26.02
2023-05-04T13:31:30.772Z,26.25
2023-05-04T13:32:30.727Z,26.53
2023-05-04T13:33:31.022Z,25.81
2023-05-04T13:34:30.661Z,25.84
2023-05-04T13:35:30.636Z,27.31
2023-05-04T13:36:30.638Z,28.03
2023-05-04T13:37:30.623Z,28.03
2023-05-04T13:38:30.661Z,28.12
2023-05-04T13:39:30.602Z,28.82
2023-05-04T13:40:30.644Z,30.05
2023-05-04T13:41:30.572Z,29.02
2023-05-04T13:42:30.558Z,29.01
2023-05-04T13:43:30.536Z,28.27
2023-05-04T13:44:30.527Z,28.78
2023-05-04T13:45:30.817Z,27.98
2023-05-04T13:46:30.520Z,27.88
2023-05-04T13:47:30.548Z,28.08
2023-05-04T13:48:30.506Z,28.30
2023-05-04T13:49:30.493Z,26.87
2023-05-04T13:50:30.468Z,26.26
2023-05-04T13:51:30.470Z,25.95
2023-05-04T13:52:30.461Z,25.84
2023-05-04T13:53:30.437Z,25.12
2023-05-04T13:54:30.444Z,25.51
2023-05-04T13:55:30.420Z,25.73
2023-05-04T13:56:30.397Z,25.55
2023-05-04T13:57:30.424Z,26.27
2023-05-04T13:58:30.380Z,26.47
2023-05-04T13:59:30.393Z,26.56
2023-05-04T14:00:30.376Z,26.14
2023-05-04T14:01:30.486Z,26.25
2023-05-04T14:02:30.424Z,26.97
2023-05-04T14:03:30.349Z,26.67
2023-05-04T14:04:30.336Z,26.15
2023-05-04T14:05:30.315Z,26.33
2023-05-04T14:06:30.304Z,26.01
2023-05-04T14:07:30.310Z,26.29
2023-05-04T14:08:30.273Z,24.59
2023-05-04T14:09:30.275Z,24.26
2023-05-04T14:10:30.276Z,23.25
2023-05-04T14:11:30.292Z,23.04
2023-05-04T14:12:30.294Z,22.84
2023-05-04T14:13:30.254Z,22.63
2023-05-04T14:14:30.206Z,22.53
2023-05-04T14:15:30.240Z,22.82
2023-05-04T14:16:30.300Z,22.09
2023-05-04T14:17:30.167Z,21.18
2023-05-04T14:18:30.237Z,21.28
2023-05-04T14:19:30.167Z,22.20
2023-05-04T14:20:30.169Z,23.03
2023-05-04T14:21:30.147Z,22.82
2023-05-04T14:22:30.127Z,22.02
2023-05-04T14:23:30.149Z,22.91
2023-05-04T14:24:30.157Z,24.08
2023-05-04T14:25:30.143Z,25.23
2023-05-04T14:26:30.078Z,26.26
2023-05-04T14:27:30.083Z,27.41
2023-05-04T14:28:30.065Z,28.21
2023-05-04T14:29:30.060Z,27.58
2023-05-04T14:30:30.055Z,27.01
2023-05-04T14:31:30.066Z,27.94
2023-05-04T14:32:30.111Z,28.41
2023-05-04T14:33:30.109Z,27.48
2023-05-04T14:34:31.289Z,26.56
2023-05-04T14:35:30.000Z,26.45
2023-05-04T14:36:29.970Z,26.04
2023-05-04T14:37:29.987Z,26.09
2023-05-04T14:38:30.005Z,25.79
2023-05-04T14:39:30.043Z,25.65
2023-05-04T14:40:29.945Z,25.86
2023-05-04T14:41:31.178Z,25.73
2023-05-04T14:42:29.928Z,25.01
2023-05-04T14:43:29.930Z,24.01
2023-05-04T14:44:29.910Z,24.11
2023-05-04T14:45:30.042Z,24.84
2023-05-04T14:46:30.016Z,25.96
2023-05-04T14:47:29.962Z,26.26
2023-05-04T14:48:29.857Z,25.24
2023-05-04T14:50:29.856Z,24.81
2023-05-04T14:51:29.835Z,24.52
2023-05-04T14:52:29.828Z,25.56
2023-05-04T14:53:29.803Z,25.68
2023-05-04T14:54:29.810Z,26.40
2023-05-04T14:55:29.798Z,26.68
2023-05-04T14:56:29.801Z,26.59
2023-05-04T14:57:29.775Z,26.89
2023-05-04T14:58:29.798Z,26.89
2023-05-04T14:59:29.775Z,27.41
2023-05-04T15:00:29.753Z,26.57
2023-05-04T15:01:29.787Z,25.93
2023-05-04T15:02:29.796Z,25.12
2023-05-04T15:03:29.792Z,25.13
2023-05-04T15:04:29.720Z,25.98
2023-05-04T15:05:29.684Z,26.37
2023-05-04T15:06:29.714Z,26.40
2023-05-04T15:07:29.673Z,27.01
2023-05-04T15:08:29.660Z,26.70
2023-05-04T15:09:29.645Z,26.28
2023-05-04T15:10:29.646Z,25.48
2023-05-04T15:11:29.626Z,25.37
2023-05-04T15:12:29.663Z,25.59
2023-05-04T15:13:29.639Z,25.81
2023-05-04T15:14:29.590Z,26.40
2023-05-04T15:15:29.585Z,26.39
2023-05-04T15:16:29.701Z,25.45
2023-05-04T15:17:29.616Z,25.15
2023-05-04T15:18:29.550Z,24.96
2023-05-04T15:19:29.539Z,25.47
2023-05-04T15:20:29.566Z,25.56
2023-05-04T15:21:29.525Z,25.04
2023-05-04T15:22:29.523Z,24.41
2023-05-04T15:23:29.505Z,24.43
2023-05-04T15:24:29.513Z,25.23
2023-05-04T15:25:29.477Z,25.16
2023-05-04T15:26:29.480Z,25.98
2023-05-04T15:27:29.469Z,26.40
2023-05-04T15:28:29.435Z,26.40
2023-05-04T15:29:29.461Z,26.48
2023-05-04T15:30:29.435Z,26.39
2023-05-04T15:31:29.448Z,26.07
2023-05-04T15:32:29.473Z,25.67
2023-05-04T15:33:29.396Z,25.97
2023-05-04T15:34:29.401Z,26.31
2023-05-04T15:35:29.378Z,27.75
2023-05-04T15:36:29.352Z,27.44
2023-05-04T15:37:29.357Z,27.64
2023-05-04T15:38:29.549Z,28.02
2023-05-04T15:39:29.321Z,27.12
2023-05-04T15:40:29.353Z,26.71
2023-05-04T15:41:29.293Z,26.82
2023-05-04T15:42:29.370Z,27.12
2023-05-04T15:43:29.289Z,27.01
2023-05-04T15:44:29.289Z,26.89
2023-05-04T15:45:29.263Z,27.17
2023-05-04T15:46:29.409Z,25.63
2023-05-04T15:47:29.267Z,24.90
2023-05-04T15:48:29.249Z,24.28
2023-05-04T15:49:29.235Z,23.68
2023-05-04T15:50:30.095Z,23.71
2023-05-04T15:51:29.232Z,24.41
2023-05-04T15:52:29.183Z,24.50
2023-05-04T15:53:29.200Z,24.73
2023-05-04T15:54:29.177Z,26.29
2023-05-04T15:55:29.193Z,26.50
2023-05-04T15:56:29.151Z,26.41
2023-05-04T15:57:29.173Z,26.41
2023-05-04T15:58:29.127Z,26.18
2023-05-04T15:59:29.107Z,27.14
2023-05-04T16:00:29.107Z,27.33
2023-05-04T16:01:29.122Z,27.53
2023-05-04T16:02:29.112Z,26.91
2023-05-04T16:03:29.096Z,26.91
2023-05-04T16:04:29.061Z,26.18
2023-05-04T16:05:29.045Z,26.08
2023-05-04T16:06:29.032Z,26.40
2023-05-04T16:07:29.042Z,26.51
2023-05-04T16:08:29.484Z,27.22
2023-05-04T16:09:29.014Z,27.42
2023-05-04T16:10:28.993Z,27.64
2023-05-04T16:11:28.973Z,28.05
2023-05-04T16:12:29.017Z,27.94
2023-05-04T16:13:29.515Z,27.76
2023-05-04T16:14:28.958Z,28.26
2023-05-04T16:15:28.945Z,27.73
2023-05-04T16:16:28.933Z,27.42
2023-05-04T16:17:29.036Z,26.81
2023-05-04T16:18:28.960Z,26.59
2023-05-04T16:19:28.893Z,25.98
2023-05-04T16:20:28.897Z,25.89
2023-05-04T16:21:28.879Z,25.28
2023-05-04T16:22:28.892Z,25.98
2023-05-04T16:23:28.874Z,25.57
2023-05-04T16:24:28.856Z,25.27
2023-05-04T16:25:28.862Z,25.06
2023-05-04T16:26:28.840Z,24.96
2023-05-04T16:27:28.886Z,25.18
2023-05-04T16:28:28.825Z,25.18
2023-05-04T16:29:28.839Z,25.60
2023-05-04T16:30:28.805Z,25.92
2023-05-04T16:31:28.967Z,26.43
2023-05-04T16:32:28.879Z,26.83
2023-05-04T16:33:28.772Z,26.83
2023-05-04T16:34:28.768Z,27.23
2023-05-04T16:35:28.734Z,27.53
2023-05-04T16:36:28.740Z,26.73
2023-05-04T16:37:28.715Z,26.83
2023-05-04T16:38:28.707Z,27.14
2023-05-04T16:39:28.738Z,26.95
2023-05-04T16:40:28.789Z,27.46
2023-05-04T16:41:28.673Z,27.56
2023-05-04T16:42:28.665Z,28.16
2023-05-04T16:43:28.676Z,28.36
2023-05-04T16:44:28.705Z,28.26
2023-05-04T16:45:28.632Z,28.36
2023-05-04T16:46:28.676Z,27.67
2023-05-04T16:47:28.665Z,27.78
2023-05-04T16:48:28.600Z,28.17
2023-05-04T16:49:28.619Z,28.29
2023-05-04T16:50:28.625Z,28.39
2023-05-04T16:51:28.611Z,29.02
2023-05-04T16:52:28.546Z,29.33
2023-05-04T16:53:28.563Z,29.75